createdAt,value
2019-02-08T00:01:00.426Z,17.95
2019-02-08T00:02:00.807Z,17.95
2019-02-08T00:02:59.901Z,17.94
2019-02-08T00:03:59.894Z,17.94
2019-02-08T00:04:59.687Z,17.94
2019-02-08T00:05:59.870Z,17.94
2019-02-08T00:07:00.241Z,17.93
2019-02-08T00:07:59.749Z,17.93
2019-02-08T00:08:59.856Z,17.92
2019-02-08T00:09:59.701Z,17.92
2019-02-08T00:10:59.867Z,17.91
2019-02-08T00:11:59.845Z,17.91
2019-02-08T00:12:59.709Z,17.9
2019-02-08T00:13:59.875Z,17.9
2019-02-08T00:14:59.990Z,17.9
2019-02-08T00:16:00.210Z,17.88
2019-02-08T00:16:59.890Z,17.88
2019-02-08T00:17:59.705Z,17.88
2019-02-08T00:18:59.724Z,17.88
2019-02-08T00:19:59.861Z,17.87
2019-02-08T00:21:00.053Z,17.85
2019-02-08T00:21:59.838Z,17.86
2019-02-08T00:23:00.152Z,17.85
2019-02-08T00:23:59.848Z,17.85
2019-02-08T00:25:00.434Z,17.86
2019-02-08T00:26:00.671Z,17.85
2019-02-08T00:26:59.693Z,17.85
2019-02-08T00:27:59.803Z,17.84
2019-02-08T00:28:59.647Z,17.83
2019-02-08T00:29:59.713Z,17.83
2019-02-08T00:30:59.416Z,17.82
2019-02-08T00:31:59.945Z,17.82
2019-02-08T00:32:59.916Z,17.8
2019-02-08T00:33:59.761Z,17.81
2019-02-08T00:35:01.116Z,17.8
2019-02-08T00:36:00.040Z,17.79
2019-02-08T00:36:59.926Z,17.78
2019-02-08T00:38:00.383Z,17.77
2019-02-08T00:38:59.795Z,17.77
2019-02-08T00:39:59.840Z,17.78
2019-02-08T00:40:59.705Z,17.78
2019-02-08T00:42:00.268Z,17.77
2019-02-08T00:42:59.985Z,17.77
2019-02-08T00:44:01.218Z,17.77
2019-02-08T00:44:59.694Z,17.75
2019-02-08T00:45:59.941Z,17.75
2019-02-08T00:47:00.719Z,17.74
2019-02-08T00:47:59.715Z,17.73
2019-02-08T00:49:00.357Z,17.73
2019-02-08T00:49:59.641Z,17.72
2019-02-08T00:50:59.953Z,17.73
2019-02-08T00:51:59.767Z,17.72
2019-02-08T00:52:59.989Z,17.73
2019-02-08T00:54:01.101Z,17.72
2019-02-08T00:54:59.653Z,17.72
2019-02-08T00:55:59.745Z,17.71
2019-02-08T00:56:59.768Z,17.71
2019-02-08T00:58:00.392Z,17.7
2019-02-08T00:58:59.998Z,17.7
2019-02-08T00:59:59.907Z,17.69
2019-02-08T01:00:59.708Z,17.69
2019-02-08T01:02:00.199Z,17.7
2019-02-08T01:02:59.435Z,17.69
2019-02-08T01:03:59.880Z,17.69
2019-02-08T01:04:59.681Z,17.67
2019-02-08T01:05:59.582Z,17.67
2019-02-08T01:06:59.729Z,17.66
2019-02-08T01:08:01.211Z,17.67
2019-02-08T01:09:00.171Z,17.66
2019-02-08T01:10:00.849Z,17.66
2019-02-08T01:11:00.656Z,17.65
2019-02-08T01:12:00.077Z,17.64
2019-02-08T01:13:00.090Z,17.65
2019-02-08T01:14:00.017Z,17.64
2019-02-08T01:15:00.370Z,17.64
2019-02-08T01:15:59.838Z,17.63
2019-02-08T01:17:00.620Z,17.62
2019-02-08T01:18:00.035Z,17.63
2019-02-08T01:19:00.241Z,17.62
2019-02-08T01:19:59.876Z,17.61
2019-02-08T01:20:59.956Z,17.6
2019-02-08T01:21:59.737Z,17.61
2019-02-08T01:22:59.874Z,17.59
2019-02-08T01:24:00.479Z,17.6
2019-02-08T01:24:59.879Z,17.59
2019-02-08T01:26:00.078Z,17.59
2019-02-08T01:27:00.462Z,17.59
2019-02-08T01:28:00.226Z,17.58
2019-02-08T01:29:00.209Z,17.59
2019-02-08T01:30:00.264Z,17.58
2019-02-08T01:31:00.079Z,17.58
2019-02-08T01:31:59.843Z,17.58
2019-02-08T01:32:59.589Z,17.56
2019-02-08T01:34:00.664Z,17.56
2019-02-08T01:34:59.870Z,17.56
2019-02-08T01:35:59.646Z,17.56
2019-02-08T01:36:59.960Z,17.56
2019-02-08T01:37:59.876Z,17.56
2019-02-08T01:39:00.281Z,17.56
2019-02-08T01:40:01.508Z,17.55
2019-02-08T01:41:01.647Z,17.55
2019-02-08T01:42:00.188Z,17.54
2019-02-08T01:43:00.103Z,17.54
2019-02-08T01:43:59.707Z,17.54
2019-02-08T01:44:59.750Z,17.54
2019-02-08T01:45:59.668Z,17.53
2019-02-08T01:46:59.825Z,17.53
2019-02-08T01:47:59.812Z,17.53
2019-02-08T01:48:59.938Z,17.53
2019-02-08T01:49:59.793Z,17.53
2019-02-08T01:50:59.954Z,17.52
2019-02-08T01:51:59.969Z,17.52
2019-02-08T01:52:59.567Z,17.51
2019-02-08T01:53:59.878Z,17.51
2019-02-08T01:54:59.749Z,17.51
2019-02-08T01:55:59.791Z,17.51
2019-02-08T01:56:59.810Z,17.5
2019-02-08T01:57:59.770Z,17.49
2019-02-08T01:58:59.813Z,17.49
2019-02-08T01:59:59.669Z,17.49
2019-02-08T02:00:59.568Z,17.48
2019-02-08T02:01:59.682Z,17.49
2019-02-08T02:03:00.050Z,17.49
2019-02-08T02:03:59.945Z,17.48
2019-02-08T02:04:59.947Z,17.48
2019-02-08T02:05:59.686Z,17.48
2019-02-08T02:06:59.607Z,17.47
2019-02-08T02:08:00.013Z,17.48
2019-02-08T02:08:59.775Z,17.46
2019-02-08T02:09:59.653Z,17.46
2019-02-08T02:11:00.190Z,17.47
2019-02-08T02:11:59.908Z,17.46
2019-02-08T02:12:59.540Z,17.45
2019-02-08T02:13:59.771Z,17.45
2019-02-08T02:15:00.318Z,17.44
2019-02-08T02:16:00.147Z,17.45
2019-02-08T02:16:59.882Z,17.44
2019-02-08T02:18:00.261Z,17.44
2019-02-08T02:18:59.640Z,17.43
2019-02-08T02:20:00.685Z,17.42
2019-02-08T02:20:59.366Z,17.43
2019-02-08T02:22:00.487Z,17.43
2019-02-08T02:22:59.562Z,17.41
2019-02-08T02:24:00.222Z,17.43
2019-02-08T02:24:59.891Z,17.41
2019-02-08T02:26:00.203Z,17.41
2019-02-08T02:26:59.605Z,17.41
2019-02-08T02:27:59.516Z,17.41
2019-02-08T02:29:00.433Z,17.41
2019-02-08T02:29:59.761Z,17.41
2019-02-08T02:30:59.942Z,17.4
2019-02-08T02:31:59.798Z,17.4
2019-02-08T02:33:00.851Z,17.41
2019-02-08T02:33:59.711Z,17.4
2019-02-08T02:34:59.694Z,17.39
2019-02-08T02:36:00.791Z,17.39
2019-02-08T02:37:00.282Z,17.39
2019-02-08T02:37:59.775Z,17.38
2019-02-08T02:38:59.657Z,17.38
2019-02-08T02:39:59.879Z,17.38
2019-02-08T02:41:01.451Z,17.38
2019-02-08T02:41:59.997Z,17.39
2019-02-08T02:42:59.844Z,17.38
2019-02-08T02:44:00.586Z,17.38
2019-02-08T02:45:00.036Z,17.37
2019-02-08T02:45:59.634Z,17.36
2019-02-08T02:47:00.265Z,17.38
2019-02-08T02:47:59.718Z,17.36
2019-02-08T02:48:59.762Z,17.36
2019-02-08T02:50:00.288Z,17.36
2019-02-08T02:51:00.187Z,17.36
2019-02-08T02:51:59.374Z,17.34
2019-02-08T02:52:59.996Z,17.33
2019-02-08T02:54:04.813Z,17.34
2019-02-08T02:54:59.697Z,17.35
2019-02-08T02:55:59.911Z,17.34
2019-02-08T02:56:59.688Z,17.33
2019-02-08T02:57:59.585Z,17.32
2019-02-08T02:58:59.646Z,17.32
2019-02-08T02:59:59.746Z,17.32
2019-02-08T03:01:00.309Z,17.31
2019-02-08T03:01:59.710Z,17.31
2019-02-08T03:03:00.080Z,17.32
2019-02-08T03:04:00.177Z,17.3
2019-02-08T03:04:59.740Z,17.31
2019-02-08T03:05:59.424Z,17.31
2019-02-08T03:06:59.990Z,17.29
2019-02-08T03:08:00.212Z,17.3
2019-02-08T03:08:59.490Z,17.32
2019-02-08T03:10:00.025Z,17.3
2019-02-08T03:11:01.370Z,17.29
2019-02-08T03:11:59.927Z,17.29
2019-02-08T03:13:00.235Z,17.29
2019-02-08T03:13:59.929Z,17.28
2019-02-08T03:14:59.954Z,17.27
2019-02-08T03:15:59.654Z,17.28
2019-02-08T03:16:59.957Z,17.28
2019-02-08T03:17:59.982Z,17.28
2019-02-08T03:18:59.676Z,17.26
2019-02-08T03:19:59.804Z,17.27
2019-02-08T03:20:59.931Z,17.26
2019-02-08T03:21:59.610Z,17.26
2019-02-08T03:23:00.108Z,17.26
2019-02-08T03:23:59.763Z,17.25
2019-02-08T03:24:59.712Z,17.25
2019-02-08T03:25:59.674Z,17.24
2019-02-08T03:27:01.620Z,17.24
2019-02-08T03:27:59.712Z,17.24
2019-02-08T03:28:59.799Z,17.24
2019-02-08T03:29:59.748Z,17.24
2019-02-08T03:30:59.901Z,17.24
2019-02-08T03:31:59.811Z,17.23
2019-02-08T03:32:59.378Z,17.22
2019-02-08T03:33:59.875Z,17.22
2019-02-08T03:34:59.788Z,17.23
2019-02-08T03:36:01.452Z,17.21
2019-02-08T03:36:59.838Z,17.21
2019-02-08T03:37:59.896Z,17.21
2019-02-08T03:38:59.781Z,17.21
2019-02-08T03:40:00.220Z,17.23
2019-02-08T03:40:59.920Z,17.2
2019-02-08T03:41:59.962Z,17.21
2019-02-08T03:42:59.779Z,17.21
2019-02-08T03:43:59.743Z,17.2
2019-02-08T03:44:59.699Z,17.19
2019-02-08T03:45:59.913Z,17.2
2019-02-08T03:47:00.065Z,17.19
2019-02-08T03:47:59.984Z,17.2
2019-02-08T03:49:00.292Z,17.19
2019-02-08T03:49:59.490Z,17.18
2019-02-08T03:51:01.510Z,17.18
2019-02-08T03:51:59.691Z,17.17
2019-02-08T03:52:59.890Z,17.18
2019-02-08T03:53:59.769Z,17.18
2019-02-08T03:54:59.925Z,17.18
2019-02-08T03:55:59.927Z,17.16
2019-02-08T03:56:59.598Z,17.17
2019-02-08T03:57:59.961Z,17.16
2019-02-08T03:59:00.598Z,17.16
2019-02-08T04:00:00.225Z,17.15
2019-02-08T04:01:00.283Z,17.16
2019-02-08T04:02:00.280Z,17.14
2019-02-08T04:02:59.721Z,17.15
2019-02-08T04:03:59.984Z,17.15
2019-02-08T04:04:59.617Z,17.15
2019-02-08T04:05:59.993Z,17.14
2019-02-08T04:07:00.259Z,17.15
2019-02-08T04:08:00.126Z,17.14
2019-02-08T04:08:59.986Z,17.14
2019-02-08T04:09:59.684Z,17.13
2019-02-08T04:11:00.147Z,17.14
2019-02-08T04:12:00.145Z,17.13
2019-02-08T04:12:59.705Z,17.13
2019-02-08T04:13:59.636Z,17.13
2019-02-08T04:15:01.491Z,17.13
2019-02-08T04:15:59.972Z,17.12
2019-02-08T04:16:59.972Z,17.12
2019-02-08T04:17:59.687Z,17.12
2019-02-08T04:18:59.485Z,17.12
2019-02-08T04:19:59.504Z,17.12
2019-02-08T04:20:59.840Z,17.12
2019-02-08T04:21:59.721Z,17.11
2019-02-08T04:23:00.226Z,17.11
2019-02-08T04:23:59.633Z,17.1
2019-02-08T04:24:59.789Z,17.11
2019-02-08T04:25:59.855Z,17.1
2019-02-08T04:26:59.543Z,17.1
2019-02-08T04:28:00.252Z,17.1
2019-02-08T04:29:00.472Z,17.1
2019-02-08T04:29:59.781Z,17.09
2019-02-08T04:30:59.879Z,17.09
2019-02-08T04:31:59.964Z,17.09
2019-02-08T04:33:01.224Z,17.09
2019-02-08T04:33:59.679Z,17.09
2019-02-08T04:35:00.003Z,17.09
2019-02-08T04:35:59.469Z,17.09
2019-02-08T04:37:00.019Z,17.08
2019-02-08T04:38:00.031Z,17.08
2019-02-08T04:38:59.798Z,17.09
2019-02-08T04:40:00.185Z,17.07
2019-02-08T04:41:01.348Z,17.08
2019-02-08T04:42:00.218Z,17.08
2019-02-08T04:43:00.034Z,17.08
2019-02-08T04:43:59.976Z,17.09
2019-02-08T04:44:59.618Z,17.09
2019-02-08T04:45:59.847Z,17.09
2019-02-08T04:47:01.421Z,17.09
2019-02-08T04:47:59.709Z,17.1
2019-02-08T04:48:59.420Z,17.1
2019-02-08T04:49:59.972Z,17.1
2019-02-08T04:50:59.757Z,17.1
2019-02-08T04:51:59.814Z,17.1
2019-02-08T04:53:00.118Z,17.11
2019-02-08T04:54:01.529Z,17.11
2019-02-08T04:54:59.590Z,17.13
2019-02-08T04:55:59.733Z,17.13
2019-02-08T04:56:59.761Z,17.14
2019-02-08T04:57:59.981Z,17.15
2019-02-08T04:58:59.689Z,17.16
2019-02-08T05:00:01.391Z,17.17
2019-02-08T05:01:00.591Z,17.17
2019-02-08T05:02:00.294Z,17.18
2019-02-08T05:02:59.896Z,17.18
2019-02-08T05:04:00.229Z,17.19
2019-02-08T05:04:59.711Z,17.2
2019-02-08T05:05:59.925Z,17.21
2019-02-08T05:06:59.625Z,17.22
2019-02-08T05:07:59.841Z,17.23
2019-02-08T05:08:59.830Z,17.24
2019-02-08T05:10:00.031Z,17.25
2019-02-08T05:10:59.755Z,17.26
2019-02-08T05:11:59.768Z,17.27
2019-02-08T05:12:59.488Z,17.28
2019-02-08T05:13:59.875Z,17.3
2019-02-08T05:14:59.866Z,17.3
2019-02-08T05:15:59.716Z,17.32
2019-02-08T05:16:59.919Z,17.33
2019-02-08T05:18:01.544Z,17.35
2019-02-08T05:18:59.561Z,17.36
2019-02-08T05:19:59.915Z,17.38
2019-02-08T05:20:59.814Z,17.41
2019-02-08T05:21:59.736Z,17.42
2019-02-08T05:23:00.342Z,17.43
2019-02-08T05:23:59.837Z,17.46
2019-02-08T05:24:59.698Z,17.47
2019-02-08T05:25:59.908Z,17.48
2019-02-08T05:26:59.363Z,17.5
2019-02-08T05:27:59.860Z,17.51
2019-02-08T05:29:01.345Z,17.54
2019-02-08T05:29:59.574Z,17.55
2019-02-08T05:30:59.903Z,17.57
2019-02-08T05:31:59.742Z,17.58
2019-02-08T05:33:00.050Z,17.6
2019-02-08T05:33:59.626Z,17.61
2019-02-08T05:35:00.567Z,17.63
2019-02-08T05:35:59.471Z,17.64
2019-02-08T05:37:01.464Z,17.65
2019-02-08T05:37:59.502Z,17.67
2019-02-08T05:39:00.027Z,17.68
2019-02-08T05:39:59.657Z,17.69
2019-02-08T05:41:01.340Z,17.71
2019-02-08T05:41:59.795Z,17.71
2019-02-08T05:42:59.659Z,17.72
2019-02-08T05:43:59.680Z,17.74
2019-02-08T05:44:59.595Z,17.74
2019-02-08T05:45:59.887Z,17.76
2019-02-08T05:46:59.418Z,17.76
2019-02-08T05:47:59.915Z,17.77
2019-02-08T05:49:00.019Z,17.78
2019-02-08T05:50:00.510Z,17.78
2019-02-08T05:50:59.784Z,17.79
2019-02-08T05:51:59.855Z,17.8
2019-02-08T05:52:59.775Z,17.81
2019-02-08T05:53:59.655Z,17.81
2019-02-08T05:54:59.586Z,17.82
2019-02-08T05:55:59.884Z,17.83
2019-02-08T05:56:59.814Z,17.83
2019-02-08T05:57:59.496Z,17.84
2019-02-08T05:59:01.054Z,17.84
2019-02-08T06:00:00.108Z,17.85
2019-02-08T06:01:01.255Z,17.85
2019-02-08T06:02:00.029Z,17.85
2019-02-08T06:02:59.696Z,17.85
2019-02-08T06:03:59.834Z,17.86
2019-02-08T06:04:59.594Z,17.85
2019-02-08T06:05:59.789Z,17.85
2019-02-08T06:06:59.530Z,17.85
2019-02-08T06:08:00.206Z,17.87
2019-02-08T06:08:59.425Z,17.86
2019-02-08T06:09:59.860Z,17.86
2019-02-08T06:10:59.921Z,17.86
2019-02-08T06:11:59.638Z,17.87
2019-02-08T06:12:59.966Z,17.87
2019-02-08T06:14:00.204Z,17.86
2019-02-08T06:14:59.952Z,17.86
2019-02-08T06:15:59.727Z,17.86
2019-02-08T06:17:00.639Z,17.86
2019-02-08T06:17:59.534Z,17.85
2019-02-08T06:19:00.193Z,17.85
2019-02-08T06:20:00.027Z,17.85
2019-02-08T06:20:59.797Z,17.85
2019-02-08T06:21:59.972Z,17.85
2019-02-08T06:22:59.663Z,17.84
2019-02-08T06:23:59.677Z,17.84
2019-02-08T06:25:03.388Z,17.84
2019-02-08T06:25:59.655Z,17.84
2019-02-08T06:26:59.998Z,17.84
2019-02-08T06:28:00.222Z,17.84
2019-02-08T06:29:00.012Z,17.85
2019-02-08T06:30:00.395Z,17.83
2019-02-08T06:31:00.553Z,17.82
2019-02-08T06:31:59.623Z,17.83
2019-02-08T06:32:59.905Z,17.83
2019-02-08T06:33:59.691Z,17.82
2019-02-08T06:35:00.049Z,17.82
2019-02-08T06:35:59.847Z,17.83
2019-02-08T06:36:59.762Z,17.81
2019-02-08T06:38:00.116Z,17.8
2019-02-08T06:38:59.389Z,17.8
2019-02-08T06:40:00.377Z,17.79
2019-02-08T06:40:59.411Z,17.8
2019-02-08T06:41:59.545Z,17.79
2019-02-08T06:42:59.736Z,17.79
2019-02-08T06:44:00.444Z,17.79
2019-02-08T06:44:59.792Z,17.79
2019-02-08T06:45:59.713Z,17.78
2019-02-08T06:46:59.470Z,17.77
2019-02-08T06:47:59.950Z,17.77
2019-02-08T06:49:00.341Z,17.77
2019-02-08T06:49:59.847Z,17.76
2019-02-08T06:50:59.964Z,17.76
2019-02-08T06:51:59.347Z,17.76
2019-02-08T06:52:59.459Z,17.75
2019-02-08T06:53:59.745Z,17.76
2019-02-08T06:54:59.776Z,17.75
2019-02-08T06:55:59.800Z,17.75
2019-02-08T06:56:59.432Z,17.75
2019-02-08T06:57:59.692Z,17.75
2019-02-08T06:58:59.737Z,17.74
2019-02-08T06:59:59.603Z,17.74
2019-02-08T07:00:59.605Z,17.73
2019-02-08T07:01:59.809Z,17.74
2019-02-08T07:02:59.679Z,17.73
2019-02-08T07:04:01.396Z,17.73
2019-02-08T07:04:59.614Z,17.74
2019-02-08T07:05:59.808Z,17.73
2019-02-08T07:06:59.647Z,17.73
2019-02-08T07:08:00.148Z,17.73
2019-02-08T07:09:00.146Z,17.73
2019-02-08T07:09:59.836Z,17.73
2019-02-08T07:10:59.871Z,17.72
2019-02-08T07:11:59.310Z,17.72
2019-02-08T07:13:00.019Z,17.72
2019-02-08T07:14:01.313Z,17.71
2019-02-08T07:14:59.407Z,17.71
2019-02-08T07:15:59.469Z,17.71
2019-02-08T07:17:00.657Z,17.71
2019-02-08T07:17:59.408Z,17.71
2019-02-08T07:18:59.735Z,17.71
2019-02-08T07:20:00.253Z,17.7
2019-02-08T07:20:59.938Z,17.7
2019-02-08T07:22:00.078Z,17.7
2019-02-08T07:22:59.527Z,17.71
2019-02-08T07:24:00.100Z,17.7
2019-02-08T07:24:59.900Z,17.7
2019-02-08T07:26:00.710Z,17.7
2019-02-08T07:27:00.232Z,17.7
2019-02-08T07:27:59.704Z,17.69
2019-02-08T07:28:59.912Z,17.7
2019-02-08T07:29:59.981Z,17.69
2019-02-08T07:30:59.863Z,17.69
2019-02-08T07:32:00.349Z,17.69
2019-02-08T07:32:59.942Z,17.7
2019-02-08T07:33:59.439Z,17.7
2019-02-08T07:34:59.913Z,17.69
2019-02-08T07:35:59.973Z,17.69
2019-02-08T07:36:59.781Z,17.69
2019-02-08T07:38:01.499Z,17.7
2019-02-08T07:38:59.427Z,17.69
2019-02-08T07:40:00.011Z,17.69
2019-02-08T07:40:59.268Z,17.69
2019-02-08T07:41:59.581Z,17.7
2019-02-08T07:43:00.926Z,17.69
2019-02-08T07:44:01.244Z,17.7
2019-02-08T07:44:59.933Z,17.69
2019-02-08T07:45:59.431Z,17.7
2019-02-08T07:46:59.639Z,17.7
2019-02-08T07:48:00.066Z,17.7
2019-02-08T07:49:01.471Z,17.7
2019-02-08T07:49:59.970Z,17.7
2019-02-08T07:50:59.454Z,17.69
2019-02-08T07:51:59.976Z,17.7
2019-02-08T07:53:00.365Z,17.7
2019-02-08T07:53:59.887Z,17.7
2019-02-08T07:55:01.270Z,17.71
2019-02-08T07:55:59.928Z,17.7
2019-02-08T07:57:00.233Z,17.71
2019-02-08T07:57:59.701Z,17.7
2019-02-08T07:58:59.715Z,17.71
2019-02-08T07:59:59.625Z,17.72
2019-02-08T08:00:59.580Z,17.73
2019-02-08T08:01:59.509Z,17.73
2019-02-08T08:02:59.964Z,17.73
2019-02-08T08:04:01.318Z,17.73
2019-02-08T08:04:59.368Z,17.74
2019-02-08T08:05:59.721Z,17.73
2019-02-08T08:06:59.665Z,17.74
2019-02-08T08:08:00.376Z,17.74
2019-02-08T08:08:59.433Z,17.76
2019-02-08T08:09:59.807Z,17.76
2019-02-08T08:10:59.579Z,17.76
2019-02-08T08:11:59.416Z,17.77
2019-02-08T08:12:59.815Z,17.77
2019-02-08T08:13:59.412Z,17.77
2019-02-08T08:14:59.282Z,17.78
2019-02-08T08:15:59.983Z,17.79
2019-02-08T08:16:59.860Z,17.79
2019-02-08T08:18:00.273Z,17.8
2019-02-08T08:19:00.075Z,17.79
2019-02-08T08:19:59.895Z,17.8
2019-02-08T08:20:59.786Z,17.8
2019-02-08T08:22:00.094Z,17.81
2019-02-08T08:22:59.800Z,17.81
2019-02-08T08:23:59.826Z,17.82
2019-02-08T08:24:59.911Z,17.81
2019-02-08T08:25:59.622Z,17.83
2019-02-08T08:26:59.405Z,17.83
2019-02-08T08:27:59.936Z,17.83
2019-02-08T08:28:59.937Z,17.83
2019-02-08T08:29:59.393Z,17.84
2019-02-08T08:30:59.964Z,17.84
2019-02-08T08:31:59.459Z,17.84
2019-02-08T08:32:59.980Z,17.84
2019-02-08T08:33:59.568Z,17.84
2019-02-08T08:34:59.882Z,17.84
2019-02-08T08:35:59.948Z,17.85
2019-02-08T08:36:59.487Z,17.85
2019-02-08T08:37:59.721Z,17.85
2019-02-08T08:38:59.816Z,17.85
2019-02-08T08:39:59.509Z,17.87
2019-02-08T08:40:59.810Z,17.85
2019-02-08T08:41:59.870Z,17.85
2019-02-08T08:42:59.947Z,17.84
2019-02-08T08:44:00.045Z,17.88
2019-02-08T08:44:59.898Z,17.87
2019-02-08T08:45:59.472Z,17.87
2019-02-08T08:46:59.909Z,17.87
2019-02-08T08:47:59.676Z,17.87
2019-02-08T08:48:59.983Z,17.88
2019-02-08T08:49:59.880Z,17.89
2019-02-08T08:50:59.694Z,17.89
2019-02-08T08:51:59.707Z,17.9
2019-02-08T08:52:59.720Z,17.91
2019-02-08T08:53:59.543Z,17.92
2019-02-08T08:54:59.711Z,17.93
2019-02-08T08:55:59.604Z,17.94
2019-02-08T08:56:59.373Z,17.95
2019-02-08T08:57:59.969Z,17.97
2019-02-08T08:58:59.747Z,17.99
2019-02-08T08:59:59.460Z,18
2019-02-08T09:00:59.980Z,18
2019-02-08T09:01:59.801Z,18.03
2019-02-08T09:03:00.123Z,18.05
2019-02-08T09:03:59.372Z,18.05
2019-02-08T09:04:59.407Z,18.12
2019-02-08T09:05:59.506Z,18.13
2019-02-08T09:07:00.097Z,18.17
2019-02-08T09:08:00.316Z,18.16
2019-02-08T09:08:59.397Z,18.18
2019-02-08T09:09:59.719Z,18.19
2019-02-08T09:11:00.072Z,18.22
2019-02-08T09:11:59.308Z,18.24
2019-02-08T09:12:59.667Z,18.26
2019-02-08T09:13:59.841Z,18.29
2019-02-08T09:14:59.400Z,18.31
2019-02-08T09:15:59.864Z,18.32
2019-02-08T09:16:59.388Z,18.34
2019-02-08T09:17:59.470Z,18.37
2019-02-08T09:18:59.615Z,18.39
2019-02-08T09:19:59.578Z,18.41
2019-02-08T09:20:59.810Z,18.42
2019-02-08T09:21:59.592Z,18.45
2019-02-08T09:22:59.714Z,18.47
2019-02-08T09:23:59.379Z,18.5
2019-02-08T09:24:59.355Z,18.51
2019-02-08T09:25:59.854Z,18.53
2019-02-08T09:26:59.751Z,18.56
2019-02-08T09:28:00.606Z,18.59
2019-02-08T09:28:59.248Z,18.59
2019-02-08T09:30:00.109Z,18.6
2019-02-08T09:30:59.823Z,18.61
2019-02-08T09:31:59.768Z,18.63
2019-02-08T09:32:59.758Z,18.64
2019-02-08T09:33:59.294Z,18.65
2019-02-08T09:34:59.933Z,18.67
2019-02-08T09:35:59.913Z,18.68
2019-02-08T09:37:01.281Z,18.69
2019-02-08T09:37:59.467Z,18.7
2019-02-08T09:39:01.365Z,18.7
2019-02-08T09:39:59.494Z,18.68
2019-02-08T09:40:59.376Z,18.68
2019-02-08T09:41:59.526Z,18.69
2019-02-08T09:42:59.577Z,18.69
2019-02-08T09:43:59.767Z,18.71
2019-02-08T09:44:59.760Z,18.68
2019-02-08T09:45:59.990Z,18.66
2019-02-08T09:46:59.830Z,18.68
2019-02-08T09:47:59.734Z,18.69
2019-02-08T09:48:59.803Z,18.72
2019-02-08T09:49:59.711Z,18.74
2019-02-08T09:50:59.848Z,18.74
2019-02-08T09:51:59.498Z,18.77
2019-02-08T09:52:59.911Z,18.77
2019-02-08T09:53:59.637Z,18.82
2019-02-08T09:54:59.487Z,18.8
2019-02-08T09:56:00.028Z,18.81
2019-02-08T09:56:59.249Z,18.84
2019-02-08T09:57:59.669Z,18.86
2019-02-08T09:59:00.333Z,18.84
2019-02-08T09:59:59.927Z,18.84
2019-02-08T10:00:59.883Z,18.85
2019-02-08T10:01:59.872Z,18.85
2019-02-08T10:02:59.631Z,18.86
2019-02-08T10:04:00.113Z,18.86
2019-02-08T10:04:59.699Z,18.86
2019-02-08T10:05:59.725Z,18.85
2019-02-08T10:06:59.393Z,18.86
2019-02-08T10:07:59.924Z,18.86
2019-02-08T10:09:00.403Z,18.86
2019-02-08T10:09:59.638Z,18.86
2019-02-08T10:10:59.725Z,18.86
2019-02-08T10:12:01.154Z,18.86
2019-02-08T10:12:59.315Z,18.87
2019-02-08T10:13:59.907Z,18.86
2019-02-08T10:14:59.451Z,18.87
2019-02-08T10:15:59.918Z,18.87
2019-02-08T10:16:59.729Z,18.88
2019-02-08T10:17:59.709Z,18.87
2019-02-08T10:18:59.719Z,18.88
2019-02-08T10:20:00.472Z,18.87
2019-02-08T10:21:00.229Z,18.88
2019-02-08T10:21:59.489Z,18.88
2019-02-08T10:22:59.629Z,18.9
2019-02-08T10:23:59.753Z,18.91
2019-02-08T10:25:00.692Z,18.92
2019-02-08T10:26:05.142Z,18.93
2019-02-08T10:26:59.777Z,18.94
2019-02-08T10:27:59.974Z,18.95
2019-02-08T10:29:00.082Z,18.95
2019-02-08T10:30:00.011Z,18.97
2019-02-08T10:30:59.461Z,18.98
2019-02-08T10:32:00.006Z,19
2019-02-08T10:32:59.908Z,19.02
2019-02-08T10:33:59.427Z,19.03
2019-02-08T10:34:59.507Z,19.04
2019-02-08T10:36:01.273Z,19.04
2019-02-08T10:36:59.880Z,19.05
2019-02-08T10:37:59.830Z,19.05
2019-02-08T10:38:59.872Z,19.07
2019-02-08T10:39:59.693Z,19.07
2019-02-08T10:40:59.608Z,19.09
2019-02-08T10:41:59.770Z,19.11
2019-02-08T10:43:01.373Z,19.12
2019-02-08T10:43:59.403Z,19.14
2019-02-08T10:45:00.245Z,19.15
2019-02-08T10:45:59.997Z,19.17
2019-02-08T10:46:59.267Z,19.17
2019-02-08T10:47:59.955Z,19.19
2019-02-08T10:48:59.920Z,19.21
2019-02-08T10:49:59.661Z,19.22
2019-02-08T10:51:00.127Z,19.24
2019-02-08T10:51:59.769Z,19.26
2019-02-08T10:53:00.303Z,19.25
2019-02-08T10:53:59.753Z,19.27
2019-02-08T10:54:59.696Z,19.24
2019-02-08T10:56:00.028Z,19.29
2019-02-08T10:56:59.823Z,19.29
2019-02-08T10:57:59.429Z,19.29
2019-02-08T10:58:59.998Z,19.29
2019-02-08T10:59:59.491Z,19.3
2019-02-08T11:01:00.018Z,19.32
2019-02-08T11:01:59.489Z,19.32
2019-02-08T11:02:59.711Z,19.33
2019-02-08T11:03:59.623Z,19.37
2019-02-08T11:04:59.823Z,19.39
2019-02-08T11:05:59.751Z,19.39
2019-02-08T11:06:59.878Z,19.4
2019-02-08T11:08:00.470Z,19.41
2019-02-08T11:09:01.189Z,19.41
2019-02-08T11:10:00.189Z,19.38
2019-02-08T11:10:59.975Z,19.38
2019-02-08T11:11:59.851Z,19.37
2019-02-08T11:12:59.772Z,19.37
2019-02-08T11:13:59.811Z,19.37
2019-02-08T11:14:59.953Z,19.37
2019-02-08T11:16:00.004Z,19.37
2019-02-08T11:16:59.542Z,19.37
2019-02-08T11:18:00.362Z,19.37
2019-02-08T11:19:00.229Z,19.36
2019-02-08T11:20:00.088Z,19.36
2019-02-08T11:20:59.963Z,19.36
2019-02-08T11:21:59.862Z,19.38
2019-02-08T11:22:59.870Z,19.36
2019-02-08T11:23:59.872Z,19.37
2019-02-08T11:24:59.567Z,19.38
2019-02-08T11:26:01.264Z,19.39
2019-02-08T11:27:00.113Z,19.39
2019-02-08T11:27:59.875Z,19.39
2019-02-08T11:28:59.436Z,19.39
2019-02-08T11:30:00.028Z,19.4
2019-02-08T11:30:59.461Z,19.4
2019-02-08T11:31:59.802Z,19.44
2019-02-08T11:32:59.378Z,19.42
2019-02-08T11:33:59.628Z,19.41
2019-02-08T11:34:59.543Z,19.4
2019-02-08T11:35:59.509Z,19.39
2019-02-08T11:36:59.819Z,19.39
2019-02-08T11:37:59.588Z,19.39
2019-02-08T11:39:01.286Z,19.38
2019-02-08T11:39:59.382Z,19.37
2019-02-08T11:41:00.720Z,19.38
2019-02-08T11:41:59.757Z,19.37
2019-02-08T11:42:59.907Z,19.38
2019-02-08T11:43:59.738Z,19.37
2019-02-08T11:44:59.757Z,19.37
2019-02-08T11:45:59.524Z,19.37
2019-02-08T11:46:59.821Z,19.37
2019-02-08T11:47:59.223Z,19.36
2019-02-08T11:49:01.252Z,19.37
2019-02-08T11:49:59.533Z,19.36
2019-02-08T11:50:59.401Z,19.41
2019-02-08T11:52:00.183Z,19.41
2019-02-08T11:52:59.688Z,19.4
2019-02-08T11:53:59.822Z,19.4
2019-02-08T11:54:59.398Z,19.42
2019-02-08T11:55:59.722Z,19.43
2019-02-08T11:56:59.896Z,19.45
2019-02-08T11:57:59.838Z,19.46
2019-02-08T11:58:59.415Z,19.46
2019-02-08T11:59:59.565Z,19.45
2019-02-08T12:00:59.418Z,19.47
2019-02-08T12:02:01.182Z,19.47
2019-02-08T12:03:00.446Z,19.48
2019-02-08T12:04:01.215Z,19.49
2019-02-08T12:04:59.736Z,19.5
2019-02-08T12:06:00.083Z,19.5
2019-02-08T12:06:59.391Z,19.52
2019-02-08T12:08:00.105Z,19.53
2019-02-08T12:08:59.684Z,19.54
2019-02-08T12:10:01.240Z,19.53
2019-02-08T12:10:59.821Z,19.54
2019-02-08T12:12:01.138Z,19.55
2019-02-08T12:12:59.479Z,19.55
2019-02-08T12:13:59.812Z,19.56
2019-02-08T12:14:59.386Z,19.56
2019-02-08T12:15:59.484Z,19.57
2019-02-08T12:17:00.362Z,19.58
2019-02-08T12:17:59.695Z,19.58
2019-02-08T12:18:59.939Z,19.59
2019-02-08T12:19:59.752Z,19.6
2019-02-08T12:21:00.469Z,19.6
2019-02-08T12:21:59.917Z,19.6
2019-02-08T12:22:59.425Z,19.61
2019-02-08T12:24:00.789Z,19.62
2019-02-08T12:24:59.819Z,19.62
2019-02-08T12:25:59.725Z,19.63
2019-02-08T12:26:59.255Z,19.63
2019-02-08T12:28:00.200Z,19.63
2019-02-08T12:28:59.307Z,19.64
2019-02-08T12:29:59.692Z,19.64
2019-02-08T12:31:01.349Z,19.64
2019-02-08T12:31:59.656Z,19.65
2019-02-08T12:32:59.793Z,19.66
2019-02-08T12:33:59.965Z,19.66
2019-02-08T12:34:59.660Z,19.67
2019-02-08T12:36:00.291Z,19.66
2019-02-08T12:36:59.170Z,19.68
2019-02-08T12:37:59.402Z,19.67
2019-02-08T12:39:00.480Z,19.68
2019-02-08T12:40:01.172Z,19.68
2019-02-08T12:40:59.819Z,19.68
2019-02-08T12:41:59.621Z,19.7
2019-02-08T12:42:59.302Z,19.7
2019-02-08T12:43:59.695Z,19.7
2019-02-08T12:44:59.846Z,19.71
2019-02-08T12:45:59.291Z,19.72
2019-02-08T12:46:59.486Z,19.71
2019-02-08T12:47:59.860Z,19.73
2019-02-08T12:48:59.407Z,19.72
2019-02-08T12:49:59.601Z,19.72
2019-02-08T12:50:59.780Z,19.74
2019-02-08T12:51:59.794Z,19.74
2019-02-08T12:52:59.981Z,19.73
2019-02-08T12:54:01.191Z,19.72
2019-02-08T12:54:59.780Z,19.72
2019-02-08T12:55:59.350Z,19.72